sensor_id;sensor_type;location;lat;lon;timestamp;pressure;altitude;pressure_sealevel;temperature;humidity
39209;BME280;24929;51.982;4.664;2023-05-03T00:00:50;78510.81;;;-143.36;nan
39209;BME280;24929;51.982;4.664;2023-05-03T00:03:15;78526.88;;;-143.36;nan
39209;BME280;24929;51.982;4.664;2023-05-03T00:05:40;78532.91;;;-143.36;nan
39209;BME280;24929;51.982;4.664;2023-05-03T00:08:06;78542.94;;;-143.36;nan
39209;BME280;24929;51.982;4.664;2023-05-03T00:10:31;78538.94;;;-143.36;nan
39209;BME280;24929;51.982;4.664;2023-05-03T00:12:57;78540.94;;;-143.36;nan
39209;BME280;24929;51.982;4.664;2023-05-03T00:15:22;78540.94;;;-143.36;nan
39209;BME280;24929;51.982;4.664;2023-05-03T00:17:47;78557.00;;;-143.36;nan
39209;BME280;24929;51.982;4.664;2023-05-03T00:20:13;78571.06;;;-143.36;nan
39209;BME280;24929;51.982;4.664;2023-05-03T00:22:39;78569.03;;;-143.36;nan
39209;BME280;24929;51.982;4.664;2023-05-03T00:25:06;78567.03;;;-143.36;nan
39209;BME280;24929;51.982;4.664;2023-05-03T00:27:31;78565.03;;;-143.36;nan
39209;BME280;24929;51.982;4.664;2023-05-03T00:29:56;78559.00;;;-143.36;nan
39209;BME280;24929;51.982;4.664;2023-05-03T00:32:22;78571.06;;;-143.36;nan
39209;BME280;24929;51.982;4.664;2023-05-03T00:34:54;78494.75;;;-143.36;nan
39209;BME280;24929;51.982;4.664;2023-05-03T00:37:21;78528.88;;;-143.36;nan
39209;BME280;24929;51.982;4.664;2023-05-03T00:39:46;78536.91;;;-143.36;nan
39209;BME280;24929;51.982;4.664;2023-05-03T00:42:11;78548.97;;;-143.36;nan
39209;BME280;24929;51.982;4.664;2023-05-03T00:44:40;78510.81;;;-143.36;nan
39209;BME280;24929;51.982;4.664;2023-05-03T00:47:05;78548.97;;;-143.36;nan
39209;BME280;24929;51.982;4.664;2023-05-03T00:49:32;78522.88;;;-143.36;nan
39209;BME280;24929;51.982;4.664;2023-05-03T00:51:57;78540.94;;;-143.36;nan
39209;BME280;24929;51.982;4.664;2023-05-03T00:54:26;78518.84;;;-143.36;nan
39209;BME280;24929;51.982;4.664;2023-05-03T00:56:51;78530.91;;;-143.36;nan
39209;BME280;24929;51.982;4.664;2023-05-03T00:59:17;78546.97;;;-143.36;nan
39209;BME280;24929;51.982;4.664;2023-05-03T01:01:47;78498.78;;;-143.36;nan
39209;BME280;24929;51.982;4.664;2023-05-03T01:04:13;78561.00;;;-143.36;nan
39209;BME280;24929;51.982;4.664;2023-05-03T01:15:11;78524.88;;;-143.36;nan
39209;BME280;24929;51.982;4.664;2023-05-03T01:17:29;78559.00;;;-143.36;nan
39209;BME280;24929;51.982;4.664;2023-05-03T01:20:06;78522.88;;;-143.36;nan
39209;BME280;24929;51.982;4.664;2023-05-03T01:25:23;78581.09;;;-143.36;nan
39209;BME280;24929;51.982;4.664;2023-05-03T01:27:48;78615.22;;;-143.36;nan
39209;BME280;24929;51.982;4.664;2023-05-03T01:30:14;78587.13;;;-143.36;nan
39209;BME280;24929;51.982;4.664;2023-05-03T01:33:02;78496.75;;;-143.36;nan
39209;BME280;24929;51.982;4.664;2023-05-03T01:35:35;78528.88;;;-143.36;nan
39209;BME280;24929;51.982;4.664;2023-05-03T01:38:01;78540.94;;;-143.36;nan
39209;BME280;24929;51.982;4.664;2023-05-03T01:40:30;78550.97;;;-143.36;nan
39209;BME280;24929;51.982;4.664;2023-05-03T01:42:56;78585.09;;;-143.36;nan
39209;BME280;24929;51.982;4.664;2023-05-03T01:45:22;78613.22;;;-143.36;nan
39209;BME280;24929;51.982;4.664;2023-05-03T01:47:48;78579.09;;;-143.36;nan
39209;BME280;24929;51.982;4.664;2023-05-03T01:50:14;78569.03;;;-143.36;nan
39209;BME280;24929;51.982;4.664;2023-05-03T01:52:39;78583.09;;;-143.36;nan
39209;BME280;24929;51.982;4.664;2023-05-03T01:55:05;78581.09;;;-143.36;nan
39209;BME280;24929;51.982;4.664;2023-05-03T01:57:30;78611.22;;;-143.36;nan
39209;BME280;24929;51.982;4.664;2023-05-03T01:59:56;78611.22;;;-143.36;nan
39209;BME280;24929;51.982;4.664;2023-05-03T02:02:21;78631.28;;;-143.36;nan
39209;BME280;24929;51.982;4.664;2023-05-03T02:04:47;78617.22;;;-143.36;nan
39209;BME280;24929;51.982;4.664;2023-05-03T02:07:12;78609.19;;;-143.36;nan
39209;BME280;24929;51.982;4.664;2023-05-03T02:09:37;78603.19;;;-143.36;nan
39209;BME280;24929;51.982;4.664;2023-05-03T02:12:03;78617.22;;;-143.36;nan
39209;BME280;24929;51.982;4.664;2023-05-03T02:14:28;78617.22;;;-143.36;nan
39209;BME280;24929;51.982;4.664;2023-05-03T02:16:54;78613.22;;;-143.36;nan
39209;BME280;24929;51.982;4.664;2023-05-03T02:19:20;78601.16;;;-143.36;nan
39209;BME280;24929;51.982;4.664;2023-05-03T02:21:45;78607.19;;;-143.36;nan
39209;BME280;24929;51.982;4.664;2023-05-03T02:24:11;78633.28;;;-143.36;nan
39209;BME280;24929;51.982;4.664;2023-05-03T02:26:36;78639.31;;;-143.36;nan
39209;BME280;24929;51.982;4.664;2023-05-03T02:29:01;78657.38;;;-143.36;nan
39209;BME280;24929;51.982;4.664;2023-05-03T02:31:27;78647.34;;;-143.36;nan
39209;BME280;24929;51.982;4.664;2023-05-03T02:33:52;78669.44;;;-143.36;nan
39209;BME280;24929;51.982;4.664;2023-05-03T02:36:19;78683.47;;;-143.36;nan
39209;BME280;24929;51.982;4.664;2023-05-03T02:38:44;78671.44;;;-143.36;nan
39209;BME280;24929;51.982;4.664;2023-05-03T02:41:10;78669.44;;;-143.36;nan
39209;BME280;24929;51.982;4.664;2023-05-03T02:43:35;78669.44;;;-143.36;nan
39209;BME280;24929;51.982;4.664;2023-05-03T02:46:01;78681.47;;;-143.36;nan
39209;BME280;24929;51.982;4.664;2023-05-03T02:48:26;78667.41;;;-143.36;nan
39209;BME280;24929;51.982;4.664;2023-05-03T02:50:51;78665.41;;;-143.36;nan
39209;BME280;24929;51.982;4.664;2023-05-03T02:53:18;78699.53;;;-143.36;nan
39209;BME280;24929;51.982;4.664;2023-05-03T02:55:44;78669.44;;;-143.36;nan
39209;BME280;24929;51.982;4.664;2023-05-03T02:58:10;78699.53;;;-143.36;nan
39209;BME280;24929;51.982;4.664;2023-05-03T03:00:36;78681.47;;;-143.36;nan
39209;BME280;24929;51.982;4.664;2023-05-03T03:03:01;78669.44;;;-143.36;nan
39209;BME280;24929;51.982;4.664;2023-05-03T03:05:27;78681.47;;;-143.36;nan
39209;BME280;24929;51.982;4.664;2023-05-03T03:07:53;78651.34;;;-143.36;nan
39209;BME280;24929;51.982;4.664;2023-05-03T03:10:18;78659.38;;;-143.36;nan
39209;BME280;24929;51.982;4.664;2023-05-03T03:12:43;78693.53;;;-143.36;nan
39209;BME280;24929;51.982;4.664;2023-05-03T03:15:09;78693.53;;;-143.36;nan
39209;BME280;24929;51.982;4.664;2023-05-03T03:17:35;78691.50;;;-143.36;nan
39209;BME280;24929;51.982;4.664;2023-05-03T03:20:06;78641.31;;;-143.36;nan
39209;BME280;24929;51.982;4.664;2023-05-03T03:22:35;78693.53;;;-143.36;nan
39209;BME280;24929;51.982;4.664;2023-05-03T03:25:01;78711.59;;;-143.36;nan
39209;BME280;24929;51.982;4.664;2023-05-03T03:27:26;78689.50;;;-143.36;nan
39209;BME280;24929;51.982;4.664;2023-05-03T03:29:52;78685.50;;;-143.36;nan
39209;BME280;24929;51.982;4.664;2023-05-03T03:32:17;78685.50;;;-143.36;nan
39209;BME280;24929;51.982;4.664;2023-05-03T03:34:42;78711.59;;;-143.36;nan
39209;BME280;24929;51.982;4.664;2023-05-03T03:37:08;78693.53;;;-143.36;nan
39209;BME280;24929;51.982;4.664;2023-05-03T03:39:33;78703.56;;;-143.36;nan
39209;BME280;24929;51.982;4.664;2023-05-03T03:41:58;78699.53;;;-143.36;nan
39209;BME280;24929;51.982;4.664;2023-05-03T03:44:24;78689.50;;;-143.36;nan
39209;BME280;24929;51.982;4.664;2023-05-03T03:46:49;78703.56;;;-143.36;nan
39209;BME280;24929;51.982;4.664;2023-05-03T03:49:15;78729.66;;;-143.36;nan
39209;BME280;24929;51.982;4.664;2023-05-03T03:51:40;78715.59;;;-143.36;nan
39209;BME280;24929;51.982;4.664;2023-05-03T03:54:05;78723.63;;;-143.36;nan
39209;BME280;24929;51.982;4.664;2023-05-03T03:56:31;78739.69;;;-143.36;nan
39209;BME280;24929;51.982;4.664;2023-05-03T03:58:56;78735.69;;;-143.36;nan
39209;BME280;24929;51.982;4.664;2023-05-03T04:01:21;78737.69;;;-143.36;nan
39209;BME280;24929;51.982;4.664;2023-05-03T04:03:47;78729.66;;;-143.36;nan
39209;BME280;24929;51.982;4.664;2023-05-03T04:06:12;78729.66;;;-143.36;nan
39209;BME280;24929;51.982;4.664;2023-05-03T04:08:38;78721.63;;;-143.36;nan
39209;BME280;24929;51.982;4.664;2023-05-03T04:11:08;78683.47;;;-143.36;nan
39209;BME280;24929;51.982;4.664;2023-05-03T04:13:35;78733.69;;;-143.36;nan
39209;BME280;24929;51.982;4.664;2023-05-03T04:16:00;78729.66;;;-143.36;nan
39209;BME280;24929;51.982;4.664;2023-05-03T04:18:25;78725.66;;;-143.36;nan
39209;BME280;24929;51.982;4.664;2023-05-03T04:20:51;78725.66;;;-143.36;nan
39209;BME280;24929;51.982;4.664;2023-05-03T04:23:16;78729.66;;;-143.36;nan
39209;BME280;24929;51.982;4.664;2023-05-03T04:25:42;78709.59;;;-143.36;nan
39209;BME280;24929;51.982;4.664;2023-05-03T04:28:11;78713.59;;;-143.36;nan
39209;BME280;24929;51.982;4.664;2023-05-03T04:30:36;78685.50;;;-143.36;nan
39209;BME280;24929;51.982;4.664;2023-05-03T04:33:02;78679.47;;;-143.36;nan
39209;BME280;24929;51.982;4.664;2023-05-03T04:35:28;78705.56;;;-143.36;nan
39209;BME280;24929;51.982;4.664;2023-05-03T04:37:53;78705.56;;;-143.36;nan
39209;BME280;24929;51.982;4.664;2023-05-03T04:40:19;78711.59;;;-143.36;nan
39209;BME280;24929;51.982;4.664;2023-05-03T04:42:44;78711.59;;;-143.36;nan
39209;BME280;24929;51.982;4.664;2023-05-03T04:45:10;78695.53;;;-143.36;nan
39209;BME280;24929;51.982;4.664;2023-05-03T04:47:35;78699.53;;;-143.36;nan
39209;BME280;24929;51.982;4.664;2023-05-03T04:50:01;78685.50;;;-143.36;nan
39209;BME280;24929;51.982;4.664;2023-05-03T04:52:26;78693.53;;;-143.36;nan
39209;BME280;24929;51.982;4.664;2023-05-03T04:54:51;78687.50;;;-143.36;nan
39209;BME280;24929;51.982;4.664;2023-05-03T04:57:17;78677.47;;;-143.36;nan
39209;BME280;24929;51.982;4.664;2023-05-03T04:59:42;78699.53;;;-143.36;nan
39209;BME280;24929;51.982;4.664;2023-05-03T05:02:08;78701.56;;;-143.36;nan
39209;BME280;24929;51.982;4.664;2023-05-03T05:04:33;78667.41;;;-143.36;nan
39209;BME280;24929;51.982;4.664;2023-05-03T05:06:58;78629.28;;;-143.36;nan
39209;BME280;24929;51.982;4.664;2023-05-03T05:09:27;78581.09;;;-143.36;nan
39209;BME280;24929;51.982;4.664;2023-05-03T05:11:52;78589.13;;;-143.36;nan
39209;BME280;24929;51.982;4.664;2023-05-03T05:14:18;78528.88;;;-143.36;nan
39209;BME280;24929;51.982;4.664;2023-05-03T05:16:43;78456.59;;;-143.36;nan
39209;BME280;24929;51.982;4.664;2023-05-03T05:19:09;78456.59;;;-143.36;nan
39209;BME280;24929;51.982;4.664;2023-05-03T05:21:34;78448.56;;;-143.36;nan
39209;BME280;24929;51.982;4.664;2023-05-03T05:24:00;78418.47;;;-143.36;nan
39209;BME280;24929;51.982;4.664;2023-05-03T05:26:26;78422.47;;;-143.36;nan
39209;BME280;24929;51.982;4.664;2023-05-03T05:28:52;78336.16;;;-143.36;nan
39209;BME280;24929;51.982;4.664;2023-05-03T05:31:17;78243.81;;;-143.36;nan
39209;BME280;24929;51.982;4.664;2023-05-03T05:33:43;78267.88;;;-143.36;nan
39209;BME280;24929;51.982;4.664;2023-05-03T05:36:08;78205.66;;;-143.36;nan
39209;BME280;24929;51.982;4.664;2023-05-03T05:38:34;78191.59;;;-143.36;nan
39209;BME280;24929;51.982;4.664;2023-05-03T05:40:59;78219.72;;;-143.36;nan
39209;BME280;24929;51.982;4.664;2023-05-03T05:43:24;78217.69;;;-143.36;nan
39209;BME280;24929;51.982;4.664;2023-05-03T05:45:50;78169.53;;;-143.36;nan
39209;BME280;24929;51.982;4.664;2023-05-03T05:48:15;78326.13;;;-143.36;nan
39209;BME280;24929;51.982;4.664;2023-05-03T05:50:41;78356.22;;;-143.36;nan
39209;BME280;24929;51.982;4.664;2023-05-03T05:53:06;78356.22;;;-143.36;nan
39209;BME280;24929;51.982;4.664;2023-05-03T05:55:33;78326.13;;;-143.36;nan
39209;BME280;24929;51.982;4.664;2023-05-03T05:57:58;78312.06;;;-143.36;nan
39209;BME280;24929;51.982;4.664;2023-05-03T06:00:24;78374.28;;;-143.36;nan
39209;BME280;24929;51.982;4.664;2023-05-03T06:02:49;78332.13;;;-143.36;nan
39209;BME280;24929;51.982;4.664;2023-05-03T06:05:15;78366.25;;;-143.36;nan
39209;BME280;24929;51.982;4.664;2023-05-03T06:07:40;78356.22;;;-143.36;nan
39209;BME280;24929;51.982;4.664;2023-05-03T06:10:06;78296.00;;;-143.36;nan
39209;BME280;24929;51.982;4.664;2023-05-03T06:12:32;78247.81;;;-143.36;nan
39209;BME280;24929;51.982;4.664;2023-05-03T06:14:57;78197.63;;;-143.36;nan
39209;BME280;24929;51.982;4.664;2023-05-03T06:17:22;78233.75;;;-143.36;nan
39209;BME280;24929;51.982;4.664;2023-05-03T06:19:50;78229.75;;;-143.36;nan
39209;BME280;24929;51.982;4.664;2023-05-03T06:22:15;78259.84;;;-143.36;nan
39209;BME280;24929;51.982;4.664;2023-05-03T06:24:40;78251.84;;;-143.36;nan
39209;BME280;24929;51.982;4.664;2023-05-03T06:27:06;78251.84;;;-143.36;nan
39209;BME280;24929;51.982;4.664;2023-05-03T06:35:43;78259.84;;;-143.36;nan
39209;BME280;24929;51.982;4.664;2023-05-03T06:38:11;78354.22;;;-143.36;nan
39209;BME280;24929;51.982;4.664;2023-05-03T06:40:36;78346.19;;;-143.36;nan
39209;BME280;24929;51.982;4.664;2023-05-03T06:43:02;78368.28;;;-143.36;nan
39209;BME280;24929;51.982;4.664;2023-05-03T06:45:27;78352.22;;;-143.36;nan
39209;BME280;24929;51.982;4.664;2023-05-03T06:47:53;78354.22;;;-143.36;nan
39209;BME280;24929;51.982;4.664;2023-05-03T06:50:18;78346.19;;;-143.36;nan
39209;BME280;24929;51.982;4.664;2023-05-03T06:52:45;78267.88;;;-143.36;nan
39209;BME280;24929;51.982;4.664;2023-05-03T06:55:10;78201.66;;;-143.36;nan
39209;BME280;24929;51.982;4.664;2023-05-03T06:57:36;78163.50;;;-143.36;nan
39209;BME280;24929;51.982;4.664;2023-05-03T07:00:02;78113.31;;;-143.36;nan
39209;BME280;24929;51.982;4.664;2023-05-03T07:02:32;78085.19;;;-143.36;nan
39209;BME280;24929;51.982;4.664;2023-05-03T07:04:57;78045.06;;;-143.36;nan
39209;BME280;24929;51.982;4.664;2023-05-03T07:07:22;78002.91;;;-143.36;nan
39209;BME280;24929;51.982;4.664;2023-05-03T07:09:48;77984.84;;;-143.36;nan
39209;BME280;24929;51.982;4.664;2023-05-03T07:12:14;77974.78;;;-143.36;nan
39209;BME280;24929;51.982;4.664;2023-05-03T07:14:40;77940.66;;;-143.36;nan
39209;BME280;24929;51.982;4.664;2023-05-03T07:17:06;77860.38;;;-143.36;nan
39209;BME280;24929;51.982;4.664;2023-05-03T07:19:32;77944.69;;;-143.36;nan
39209;BME280;24929;51.982;4.664;2023-05-03T07:21:57;77946.69;;;-143.36;nan
39209;BME280;24929;51.982;4.664;2023-05-03T07:24:23;77960.75;;;-143.36;nan
39209;BME280;24929;51.982;4.664;2023-05-03T07:26:50;77896.50;;;-143.36;nan
39209;BME280;24929;51.982;4.664;2023-05-03T07:29:15;77884.47;;;-143.36;nan
39209;BME280;24929;51.982;4.664;2023-05-03T07:31:41;77872.41;;;-143.36;nan
39209;BME280;24929;51.982;4.664;2023-05-03T07:34:06;77796.13;;;-143.36;nan
39209;BME280;24929;51.982;4.664;2023-05-03T07:36:31;77711.81;;;-143.36;nan
39209;BME280;24929;51.982;4.664;2023-05-03T07:38:57;77701.78;;;-143.36;nan
39209;BME280;24929;51.982;4.664;2023-05-03T07:41:22;77707.81;;;-143.36;nan
39209;BME280;24929;51.982;4.664;2023-05-03T07:43:48;77693.75;;;-143.36;nan
39209;BME280;24929;51.982;4.664;2023-05-03T07:46:14;77657.63;;;-143.36;nan
39209;BME280;24929;51.982;4.664;2023-05-03T07:48:39;77747.97;;;-143.36;nan
39209;BME280;24929;51.982;4.664;2023-05-03T07:51:04;77810.19;;;-143.36;nan
39209;BME280;24929;51.982;4.664;2023-05-03T07:53:30;77780.06;;;-143.36;nan
39209;BME280;24929;51.982;4.664;2023-05-03T07:55:55;77737.91;;;-143.36;nan
39209;BME280;24929;51.982;4.664;2023-05-03T07:58:21;77766.03;;;-143.36;nan
39209;BME280;24929;51.982;4.664;2023-05-03T08:00:47;77693.75;;;-143.36;nan
39209;BME280;24929;51.982;4.664;2023-05-03T08:03:12;77617.47;;;-143.36;nan
39209;BME280;24929;51.982;4.664;2023-05-03T08:05:37;77569.31;;;-143.36;nan
39209;BME280;24929;51.982;4.664;2023-05-03T08:08:03;77539.19;;;-143.36;nan
39209;BME280;24929;51.982;4.664;2023-05-03T08:10:29;77539.19;;;-143.36;nan
39209;BME280;24929;51.982;4.664;2023-05-03T08:12:55;77589.38;;;-143.36;nan
39209;BME280;24929;51.982;4.664;2023-05-03T08:15:20;77555.25;;;-143.36;nan
39209;BME280;24929;51.982;4.664;2023-05-03T08:17:45;77551.25;;;-143.36;nan
39209;BME280;24929;51.982;4.664;2023-05-03T08:20:11;77631.53;;;-143.36;nan
39209;BME280;24929;51.982;4.664;2023-05-03T08:22:38;77617.47;;;-143.36;nan
39209;BME280;24929;51.982;4.664;2023-05-03T08:25:04;77553.25;;;-143.36;nan
39209;BME280;24929;51.982;4.664;2023-05-03T08:27:30;77619.50;;;-143.36;nan
39209;BME280;24929;51.982;4.664;2023-05-03T08:29:56;77605.44;;;-143.36;nan
39209;BME280;24929;51.982;4.664;2023-05-03T08:32:22;77679.72;;;-143.36;nan
39209;BME280;24929;51.982;4.664;2023-05-03T08:34:49;77589.38;;;-143.36;nan
39209;BME280;24929;51.982;4.664;2023-05-03T08:37:14;77579.34;;;-143.36;nan
39209;BME280;24929;51.982;4.664;2023-05-03T08:39:40;77587.38;;;-143.36;nan
39209;BME280;24929;51.982;4.664;2023-05-03T08:42:06;77599.41;;;-143.36;nan
39209;BME280;24929;51.982;4.664;2023-05-03T08:44:37;77533.19;;;-143.36;nan
39209;BME280;24929;51.982;4.664;2023-05-03T08:47:08;77565.28;;;-143.36;nan
39209;BME280;24929;51.982;4.664;2023-05-03T08:49:35;77589.38;;;-143.36;nan
39209;BME280;24929;51.982;4.664;2023-05-03T08:52:04;77603.44;;;-143.36;nan
39209;BME280;24929;51.982;4.664;2023-05-03T08:54:30;77627.53;;;-143.36;nan
39209;BME280;24929;51.982;4.664;2023-05-03T08:56:55;77603.44;;;-143.36;nan
39209;BME280;24929;51.982;4.664;2023-05-03T08:59:21;77585.38;;;-143.36;nan
39209;BME280;24929;51.982;4.664;2023-05-03T09:01:46;77605.44;;;-143.36;nan
39209;BME280;24929;51.982;4.664;2023-05-03T09:04:12;77571.31;;;-143.36;nan
39209;BME280;24929;51.982;4.664;2023-05-03T09:06:38;77623.50;;;-143.36;nan
39209;BME280;24929;51.982;4.664;2023-05-03T09:09:05;77567.31;;;-143.36;nan
39209;BME280;24929;51.982;4.664;2023-05-03T09:11:35;77583.34;;;-143.36;nan
39209;BME280;24929;51.982;4.664;2023-05-03T09:16:37;77571.31;;;-143.36;nan
39209;BME280;24929;51.982;4.664;2023-05-03T09:19:04;77625.50;;;-143.36;nan
39209;BME280;24929;51.982;4.664;2023-05-03T09:21:32;77633.53;;;-143.36;nan
39209;BME280;24929;51.982;4.664;2023-05-03T09:23:58;77651.59;;;-143.36;nan
39209;BME280;24929;51.982;4.664;2023-05-03T09:28:53;77655.63;;;-143.36;nan
39209;BME280;24929;51.982;4.664;2023-05-03T09:31:18;77705.81;;;-143.36;nan
39209;BME280;24929;51.982;4.664;2023-05-03T09:33:44;77667.66;;;-143.36;nan
39209;BME280;24929;51.982;4.664;2023-05-03T09:36:09;77633.53;;;-143.36;nan
39209;BME280;24929;51.982;4.664;2023-05-03T09:38:35;77527.16;;;-143.36;nan
39209;BME280;24929;51.982;4.664;2023-05-03T09:41:02;77593.41;;;-143.36;nan
39209;BME280;24929;51.982;4.664;2023-05-03T09:43:27;77607.44;;;-143.36;nan
39209;BME280;24929;51.982;4.664;2023-05-03T09:46:10;77525.16;;;-143.36;nan
39209;BME280;24929;51.982;4.664;2023-05-03T09:48:36;77609.47;;;-143.36;nan
39209;BME280;24929;51.982;4.664;2023-05-03T09:51:03;77619.50;;;-143.36;nan
39209;BME280;24929;51.982;4.664;2023-05-03T09:53:32;77609.47;;;-143.36;nan
39209;BME280;24929;51.982;4.664;2023-05-03T09:55:59;77555.25;;;-143.36;nan
39209;BME280;24929;51.982;4.664;2023-05-03T09:58:26;77555.25;;;-143.36;nan
39209;BME280;24929;51.982;4.664;2023-05-03T10:00:53;77543.22;;;-143.36;nan
39209;BME280;24929;51.982;4.664;2023-05-03T10:03:27;77529.16;;;-143.36;nan
39209;BME280;24929;51.982;4.664;2023-05-03T10:05:56;77559.28;;;-143.36;nan
39209;BME280;24929;51.982;4.664;2023-05-03T10:10:54;77655.63;;;-143.36;nan
39209;BME280;24929;51.982;4.664;2023-05-03T10:13:21;77627.53;;;-143.36;nan
39209;BME280;24929;51.982;4.664;2023-05-03T10:15:53;77581.34;;;-143.36;nan
39209;BME280;24929;51.982;4.664;2023-05-03T10:18:24;77551.25;;;-143.36;nan
39209;BME280;24929;51.982;4.664;2023-05-03T10:20:55;77611.47;;;-143.36;nan
39209;BME280;24929;51.982;4.664;2023-05-03T10:23:22;77629.53;;;-143.36;nan
39209;BME280;24929;51.982;4.664;2023-05-03T10:28:35;77501.06;;;-143.36;nan
39209;BME280;24929;51.982;4.664;2023-05-03T10:31:01;77575.34;;;-143.36;nan
39209;BME280;24929;51.982;4.664;2023-05-03T10:33:29;77533.19;;;-143.36;nan
39209;BME280;24929;51.982;4.664;2023-05-03T10:35:55;77521.13;;;-143.36;nan
39209;BME280;24929;51.982;4.664;2023-05-03T10:38:26;77440.84;;;-143.36;nan
39209;BME280;24929;51.982;4.664;2023-05-03T10:40:52;77557.25;;;-143.36;nan
39209;BME280;24929;51.982;4.664;2023-05-03T10:46:04;77474.97;;;-143.36;nan
39209;BME280;24929;51.982;4.664;2023-05-03T10:48:31;77454.91;;;-143.36;nan
39209;BME280;24929;51.982;4.664;2023-05-03T10:51:29;77481.00;;;-143.36;nan
39209;BME280;24929;51.982;4.664;2023-05-03T10:53:43;77452.88;;;-143.36;nan
39209;BME280;24929;51.982;4.664;2023-05-03T10:56:13;77398.69;;;-143.36;nan
39209;BME280;24929;51.982;4.664;2023-05-03T10:58:44;77511.09;;;-143.36;nan
39209;BME280;24929;51.982;4.664;2023-05-03T11:01:13;77368.59;;;-143.36;nan
39209;BME280;24929;51.982;4.664;2023-05-03T11:06:39;77298.34;;;-143.36;nan
39209;BME280;24929;51.982;4.664;2023-05-03T11:09:06;77362.56;;;-143.36;nan
39209;BME280;24929;51.982;4.664;2023-05-03T11:11:35;77420.78;;;-143.36;nan
39209;BME280;24929;51.982;4.664;2023-05-03T11:14:00;77368.59;;;-143.36;nan
39209;BME280;24929;51.982;4.664;2023-05-03T11:16:26;77396.69;;;-143.36;nan
39209;BME280;24929;51.982;4.664;2023-05-03T11:18:52;77376.63;;;-143.36;nan
39209;BME280;24929;51.982;4.664;2023-05-03T11:21:18;77414.75;;;-143.36;nan
39209;BME280;24929;51.982;4.664;2023-05-03T11:23:44;77400.72;;;-143.36;nan
39209;BME280;24929;51.982;4.664;2023-05-03T11:26:10;77362.56;;;-143.36;nan
39209;BME280;24929;51.982;4.664;2023-05-03T11:28:40;77336.47;;;-143.36;nan
39209;BME280;24929;51.982;4.664;2023-05-03T11:31:07;77348.53;;;-143.36;nan
39209;BME280;24929;51.982;4.664;2023-05-03T11:33:33;77396.69;;;-143.36;nan
39209;BME280;24929;51.982;4.664;2023-05-03T11:36:02;77334.47;;;-143.36;nan
39209;BME280;24929;51.982;4.664;2023-05-03T11:38:30;77268.25;;;-143.36;nan
39209;BME280;24929;51.982;4.664;2023-05-03T11:40:56;77306.38;;;-143.36;nan
39209;BME280;24929;51.982;4.664;2023-05-03T11:43:22;77334.47;;;-143.36;nan
39209;BME280;24929;51.982;4.664;2023-05-03T11:45:50;77214.03;;;-143.36;nan
39209;BME280;24929;51.982;4.664;2023-05-03T11:48:16;77264.22;;;-143.36;nan
39209;BME280;24929;51.982;4.664;2023-05-03T11:51:05;77153.84;;;-143.36;nan
39209;BME280;24929;51.982;4.664;2023-05-03T11:53:32;77224.06;;;-143.36;nan
39209;BME280;24929;51.982;4.664;2023-05-03T11:55:59;77155.84;;;-143.36;nan
39209;BME280;24929;51.982;4.664;2023-05-03T11:58:25;77210.03;;;-143.36;nan
39209;BME280;24929;51.982;4.664;2023-05-03T12:00:55;77103.66;;;-143.36;nan
39209;BME280;24929;51.982;4.664;2023-05-03T12:03:24;77161.84;;;-143.36;nan
39209;BME280;24929;51.982;4.664;2023-05-03T12:05:51;77236.13;;;-143.36;nan
39209;BME280;24929;51.982;4.664;2023-05-03T12:08:20;77234.13;;;-143.36;nan
39209;BME280;24929;51.982;4.664;2023-05-03T12:10:48;77244.16;;;-143.36;nan
39209;BME280;24929;51.982;4.664;2023-05-03T12:13:34;77224.06;;;-143.36;nan
39209;BME280;24929;51.982;4.664;2023-05-03T12:16:01;77202.00;;;-143.36;nan
39209;BME280;24929;51.982;4.664;2023-05-03T12:18:54;77077.56;;;-143.36;nan
39209;BME280;24929;51.982;4.664;2023-05-03T12:21:21;77007.31;;;-143.36;nan
39209;BME280;24929;51.982;4.664;2023-05-03T12:23:48;77151.81;;;-143.36;nan
39209;BME280;24929;51.982;4.664;2023-05-03T12:26:16;77177.91;;;-143.36;nan
39209;BME280;24929;51.982;4.664;2023-05-03T12:28:41;77165.88;;;-143.36;nan
39209;BME280;24929;51.982;4.664;2023-05-03T12:31:07;77121.72;;;-143.36;nan
39209;BME280;24929;51.982;4.664;2023-05-03T12:33:33;77107.66;;;-143.36;nan
39209;BME280;24929;51.982;4.664;2023-05-03T12:35:58;77149.81;;;-143.36;nan
39209;BME280;24929;51.982;4.664;2023-05-03T12:38:23;77167.88;;;-143.36;nan
39209;BME280;24929;51.982;4.664;2023-05-03T12:40:49;77161.84;;;-143.36;nan
39209;BME280;24929;51.982;4.664;2023-05-03T12:43:15;77159.84;;;-143.36;nan
39209;BME280;24929;51.982;4.664;2023-05-03T12:45:40;77099.66;;;-143.36;nan
39209;BME280;24929;51.982;4.664;2023-05-03T12:48:06;77143.78;;;-143.36;nan
39209;BME280;24929;51.982;4.664;2023-05-03T12:50:31;77153.84;;;-143.36;nan
39209;BME280;24929;51.982;4.664;2023-05-03T12:52:57;77177.91;;;-143.36;nan
39209;BME280;24929;51.982;4.664;2023-05-03T12:55:22;77149.81;;;-143.36;nan
39209;BME280;24929;51.982;4.664;2023-05-03T12:57:47;77131.75;;;-143.36;nan
39209;BME280;24929;51.982;4.664;2023-05-03T13:03:35;77127.75;;;-143.36;nan
39209;BME280;24929;51.982;4.664;2023-05-03T13:06:00;77125.72;;;-143.36;nan
39209;BME280;24929;51.982;4.664;2023-05-03T13:08:29;77095.63;;;-143.36;nan
39209;BME280;24929;51.982;4.664;2023-05-03T13:10:54;77081.59;;;-143.36;nan
39209;BME280;24929;51.982;4.664;2023-05-03T13:13:20;76979.22;;;-143.36;nan
39209;BME280;24929;51.982;4.664;2023-05-03T13:15:45;77029.41;;;-143.36;nan
39209;BME280;24929;51.982;4.664;2023-05-03T13:18:11;77041.44;;;-143.36;nan
39209;BME280;24929;51.982;4.664;2023-05-03T13:20:38;77057.50;;;-143.36;nan
39209;BME280;24929;51.982;4.664;2023-05-03T13:23:04;76985.25;;;-143.36;nan
39209;BME280;24929;51.982;4.664;2023-05-03T13:25:30;77083.59;;;-143.36;nan
39209;BME280;24929;51.982;4.664;2023-05-03T13:27:55;77133.75;;;-143.36;nan
39209;BME280;24929;51.982;4.664;2023-05-03T13:30:21;77131.75;;;-143.36;nan
39209;BME280;24929;51.982;4.664;2023-05-03T13:32:48;77021.38;;;-143.36;nan